Port Acres, Texas
Current Conditions -  °F | °C
As of 5:53 PM on Monday 24 Nov 2014 (Local Time) from KBPT Reporting Station
Few Clouds Few Clouds  
Wind Chill: 59°   Ceiling: Unl
Heat Index: 59°   Visibility: 10mi
Dew Point: 38°   Wind: 12mph
Humidity: 46%   Direction: 360°N
Pressure: 30.02"   Gusts: NA
Location:  29.7569°N, 94.1898°W
Report Text: KBPT 242353Z AUTO 36010KT 10SM FEW120 15/03 A3002 RMK AO2 SLP165 60000 T01500033 10189 20144 53010
Loading
Personal Weather Stations






























Interactive Weather Map New forecast layout! Learn more

10-Day Weather Forecast

Advertisements
Track Severe Weather on mobile